sensor_id;sensor_type;location;lat;lon;timestamp;temperature;humidity
24148;DHT22;12309;51.450;-2.624;2023-08-07T00:00:29;13.80;99.90
24148;DHT22;12309;51.450;-2.624;2023-08-07T00:02:55;13.80;99.90
24148;DHT22;12309;51.450;-2.624;2023-08-07T00:05:21;13.70;99.90
24148;DHT22;12309;51.450;-2.624;2023-08-07T00:07:46;13.60;99.90
24148;DHT22;12309;51.450;-2.624;2023-08-07T00:10:12;13.80;99.90
24148;DHT22;12309;51.450;-2.624;2023-08-07T00:12:38;13.50;99.90
24148;DHT22;12309;51.450;-2.624;2023-08-07T00:15:04;13.60;99.90
24148;DHT22;12309;51.450;-2.624;2023-08-07T00:17:30;13.60;99.90
24148;DHT22;12309;51.450;-2.624;2023-08-07T00:19:56;13.80;99.90
24148;DHT22;12309;51.450;-2.624;2023-08-07T00:22:21;13.60;99.90
24148;DHT22;12309;51.450;-2.624;2023-08-07T00:24:47;13.70;99.90
24148;DHT22;12309;51.450;-2.624;2023-08-07T00:27:12;13.50;99.90
24148;DHT22;12309;51.450;-2.624;2023-08-07T00:29:39;13.60;99.90
24148;DHT22;12309;51.450;-2.624;2023-08-07T00:32:05;13.50;99.90
24148;DHT22;12309;51.450;-2.624;2023-08-07T00:34:31;13.60;99.90
24148;DHT22;12309;51.450;-2.624;2023-08-07T00:36:57;13.40;99.90
24148;DHT22;12309;51.450;-2.624;2023-08-07T00:39:24;13.40;99.90
24148;DHT22;12309;51.450;-2.624;2023-08-07T00:41:50;13.50;99.90
24148;DHT22;12309;51.450;-2.624;2023-08-07T00:44:15;13.40;99.90
24148;DHT22;12309;51.450;-2.624;2023-08-07T00:46:42;13.30;99.90
24148;DHT22;12309;51.450;-2.624;2023-08-07T00:49:09;13.40;99.90
24148;DHT22;12309;51.450;-2.624;2023-08-07T00:51:36;13.40;99.90
24148;DHT22;12309;51.450;-2.624;2023-08-07T00:54:03;13.30;99.90
24148;DHT22;12309;51.450;-2.624;2023-08-07T00:56:30;13.40;99.90
24148;DHT22;12309;51.450;-2.624;2023-08-07T00:59:00;13.30;99.90
24148;DHT22;12309;51.450;-2.624;2023-08-07T01:01:27;13.40;99.90
24148;DHT22;12309;51.450;-2.624;2023-08-07T01:03:53;13.40;99.90
24148;DHT22;12309;51.450;-2.624;2023-08-07T01:06:18;13.40;99.90
24148;DHT22;12309;51.450;-2.624;2023-08-07T01:08:44;13.30;99.90
24148;DHT22;12309;51.450;-2.624;2023-08-07T01:11:48;13.30;99.90
24148;DHT22;12309;51.450;-2.624;2023-08-07T01:14:37;13.20;99.90
24148;DHT22;12309;51.450;-2.624;2023-08-07T01:17:06;13.20;99.90
24148;DHT22;12309;51.450;-2.624;2023-08-07T01:19:34;13.30;99.90
24148;DHT22;12309;51.450;-2.624;2023-08-07T01:22:19;13.20;99.90
24148;DHT22;12309;51.450;-2.624;2023-08-07T01:24:47;13.50;99.90
24148;DHT22;12309;51.450;-2.624;2023-08-07T01:30:01;13.30;99.90
24148;DHT22;12309;51.450;-2.624;2023-08-07T01:35:35;13.20;99.90
24148;DHT22;12309;51.450;-2.624;2023-08-07T01:38:02;13.40;99.90
24148;DHT22;12309;51.450;-2.624;2023-08-07T01:40:29;13.40;99.90
24148;DHT22;12309;51.450;-2.624;2023-08-07T01:42:55;13.40;99.90
24148;DHT22;12309;51.450;-2.624;2023-08-07T01:45:29;13.50;99.90
24148;DHT22;12309;51.450;-2.624;2023-08-07T01:47:55;13.40;99.90
24148;DHT22;12309;51.450;-2.624;2023-08-07T01:50:22;13.40;99.90
24148;DHT22;12309;51.450;-2.624;2023-08-07T01:52:48;13.40;99.90
24148;DHT22;12309;51.450;-2.624;2023-08-07T01:55:15;13.40;99.90
24148;DHT22;12309;51.450;-2.624;2023-08-07T01:57:41;13.40;99.90
24148;DHT22;12309;51.450;-2.624;2023-08-07T02:00:08;13.50;99.90
24148;DHT22;12309;51.450;-2.624;2023-08-07T02:02:34;13.30;99.90
24148;DHT22;12309;51.450;-2.624;2023-08-07T02:05:00;13.40;99.90
24148;DHT22;12309;51.450;-2.624;2023-08-07T02:07:26;13.50;99.90
24148;DHT22;12309;51.450;-2.624;2023-08-07T02:12:17;13.40;99.90
24148;DHT22;12309;51.450;-2.624;2023-08-07T02:14:43;13.40;99.90
24148;DHT22;12309;51.450;-2.624;2023-08-07T02:19:34;13.40;99.90
24148;DHT22;12309;51.450;-2.624;2023-08-07T02:22:01;13.30;99.90
24148;DHT22;12309;51.450;-2.624;2023-08-07T02:24:26;13.50;99.90
24148;DHT22;12309;51.450;-2.624;2023-08-07T02:26:52;13.00;99.90
24148;DHT22;12309;51.450;-2.624;2023-08-07T02:29:18;13.30;99.90
24148;DHT22;12309;51.450;-2.624;2023-08-07T02:31:43;13.30;99.90
24148;DHT22;12309;51.450;-2.624;2023-08-07T02:34:09;13.10;99.90
24148;DHT22;12309;51.450;-2.624;2023-08-07T02:36:34;13.30;99.90
24148;DHT22;12309;51.450;-2.624;2023-08-07T02:39:00;13.00;99.90
24148;DHT22;12309;51.450;-2.624;2023-08-07T02:41:25;12.80;99.90
24148;DHT22;12309;51.450;-2.624;2023-08-07T02:43:51;13.10;99.90
24148;DHT22;12309;51.450;-2.624;2023-08-07T02:46:17;13.10;99.90
24148;DHT22;12309;51.450;-2.624;2023-08-07T02:48:43;13.60;99.90
24148;DHT22;12309;51.450;-2.624;2023-08-07T02:51:09;12.80;99.90
24148;DHT22;12309;51.450;-2.624;2023-08-07T02:53:35;13.30;99.90
24148;DHT22;12309;51.450;-2.624;2023-08-07T02:58:26;12.90;99.90
24148;DHT22;12309;51.450;-2.624;2023-08-07T03:00:52;15.50;99.90
24148;DHT22;12309;51.450;-2.624;2023-08-07T03:03:17;12.90;99.90
24148;DHT22;12309;51.450;-2.624;2023-08-07T03:05:50;12.90;99.90
24148;DHT22;12309;51.450;-2.624;2023-08-07T03:08:16;12.80;99.90
24148;DHT22;12309;51.450;-2.624;2023-08-07T03:10:42;12.70;99.90
24148;DHT22;12309;51.450;-2.624;2023-08-07T03:13:07;12.80;99.90
24148;DHT22;12309;51.450;-2.624;2023-08-07T03:15:33;12.80;99.90
24148;DHT22;12309;51.450;-2.624;2023-08-07T03:17:59;12.80;99.90
24148;DHT22;12309;51.450;-2.624;2023-08-07T03:20:24;12.90;99.90
24148;DHT22;12309;51.450;-2.624;2023-08-07T03:22:50;12.60;99.90
24148;DHT22;12309;51.450;-2.624;2023-08-07T03:25:15;12.60;99.90
24148;DHT22;12309;51.450;-2.624;2023-08-07T03:27:41;12.80;99.90
24148;DHT22;12309;51.450;-2.624;2023-08-07T03:30:07;12.80;99.90
24148;DHT22;12309;51.450;-2.624;2023-08-07T03:34:58;12.60;99.90
24148;DHT22;12309;51.450;-2.624;2023-08-07T03:37:24;12.60;99.90
24148;DHT22;12309;51.450;-2.624;2023-08-07T03:39:50;12.60;99.90
24148;DHT22;12309;51.450;-2.624;2023-08-07T03:42:16;12.60;99.90
24148;DHT22;12309;51.450;-2.624;2023-08-07T03:44:41;12.60;99.90
24148;DHT22;12309;51.450;-2.624;2023-08-07T03:47:07;12.60;99.90
24148;DHT22;12309;51.450;-2.624;2023-08-07T03:49:32;12.60;99.90
24148;DHT22;12309;51.450;-2.624;2023-08-07T03:51:58;12.60;99.90
24148;DHT22;12309;51.450;-2.624;2023-08-07T03:54:24;12.70;99.90
24148;DHT22;12309;51.450;-2.624;2023-08-07T03:56:50;12.50;99.90
24148;DHT22;12309;51.450;-2.624;2023-08-07T03:59:17;10.90;99.90
24148;DHT22;12309;51.450;-2.624;2023-08-07T04:01:42;12.50;99.90
24148;DHT22;12309;51.450;-2.624;2023-08-07T04:04:08;12.40;99.90
24148;DHT22;12309;51.450;-2.624;2023-08-07T04:06:34;12.40;99.90
24148;DHT22;12309;51.450;-2.624;2023-08-07T04:08:59;12.40;99.90
24148;DHT22;12309;51.450;-2.624;2023-08-07T04:11:25;12.40;99.90
24148;DHT22;12309;51.450;-2.624;2023-08-07T04:13:52;12.50;99.90
24148;DHT22;12309;51.450;-2.624;2023-08-07T04:16:17;12.50;99.90
24148;DHT22;12309;51.450;-2.624;2023-08-07T04:18:43;12.40;99.90
24148;DHT22;12309;51.450;-2.624;2023-08-07T04:21:08;12.40;99.90
24148;DHT22;12309;51.450;-2.624;2023-08-07T04:23:34;12.20;99.90
24148;DHT22;12309;51.450;-2.624;2023-08-07T04:26:00;12.30;99.90
24148;DHT22;12309;51.450;-2.624;2023-08-07T04:28:28;12.30;99.90
24148;DHT22;12309;51.450;-2.624;2023-08-07T04:30:53;12.30;99.90
24148;DHT22;12309;51.450;-2.624;2023-08-07T04:33:22;12.30;99.90
24148;DHT22;12309;51.450;-2.624;2023-08-07T04:35:48;12.30;99.90
24148;DHT22;12309;51.450;-2.624;2023-08-07T04:38:14;12.20;99.90
24148;DHT22;12309;51.450;-2.624;2023-08-07T04:40:47;12.10;99.90
24148;DHT22;12309;51.450;-2.624;2023-08-07T04:43:14;12.30;99.90
24148;DHT22;12309;51.450;-2.624;2023-08-07T04:45:40;12.10;99.90
24148;DHT22;12309;51.450;-2.624;2023-08-07T04:48:09;12.10;99.90
24148;DHT22;12309;51.450;-2.624;2023-08-07T04:50:34;12.10;99.90
24148;DHT22;12309;51.450;-2.624;2023-08-07T04:53:00;12.10;99.90
24148;DHT22;12309;51.450;-2.624;2023-08-07T04:55:26;12.10;99.90
24148;DHT22;12309;51.450;-2.624;2023-08-07T04:57:51;12.10;99.90
24148;DHT22;12309;51.450;-2.624;2023-08-07T05:00:20;12.20;99.90
24148;DHT22;12309;51.450;-2.624;2023-08-07T05:02:46;12.10;99.90
24148;DHT22;12309;51.450;-2.624;2023-08-07T05:05:13;12.30;99.90
24148;DHT22;12309;51.450;-2.624;2023-08-07T05:07:40;12.20;99.90
24148;DHT22;12309;51.450;-2.624;2023-08-07T05:10:06;12.30;99.90
24148;DHT22;12309;51.450;-2.624;2023-08-07T05:12:32;12.30;99.90
24148;DHT22;12309;51.450;-2.624;2023-08-07T05:14:58;12.20;99.90
24148;DHT22;12309;51.450;-2.624;2023-08-07T05:17:23;12.30;99.90
24148;DHT22;12309;51.450;-2.624;2023-08-07T05:19:49;12.30;99.90
24148;DHT22;12309;51.450;-2.624;2023-08-07T05:22:15;12.40;99.90
24148;DHT22;12309;51.450;-2.624;2023-08-07T05:24:41;12.40;99.90
24148;DHT22;12309;51.450;-2.624;2023-08-07T05:27:08;12.50;99.90
24148;DHT22;12309;51.450;-2.624;2023-08-07T05:29:34;12.40;99.90
24148;DHT22;12309;51.450;-2.624;2023-08-07T05:32:00;12.40;99.90
24148;DHT22;12309;51.450;-2.624;2023-08-07T05:34:25;12.50;99.90
24148;DHT22;12309;51.450;-2.624;2023-08-07T05:36:51;12.60;99.90
24148;DHT22;12309;51.450;-2.624;2023-08-07T05:39:17;12.50;99.90
24148;DHT22;12309;51.450;-2.624;2023-08-07T05:41:42;12.50;99.90
24148;DHT22;12309;51.450;-2.624;2023-08-07T05:44:08;12.50;99.90
24148;DHT22;12309;51.450;-2.624;2023-08-07T05:46:33;12.70;99.90
24148;DHT22;12309;51.450;-2.624;2023-08-07T05:48:59;12.80;99.90
24148;DHT22;12309;51.450;-2.624;2023-08-07T05:51:24;12.80;99.90
24148;DHT22;12309;51.450;-2.624;2023-08-07T05:53:50;12.80;99.90
24148;DHT22;12309;51.450;-2.624;2023-08-07T05:56:16;12.90;99.90
24148;DHT22;12309;51.450;-2.624;2023-08-07T05:58:43;12.90;99.90
24148;DHT22;12309;51.450;-2.624;2023-08-07T06:01:08;12.80;99.90
24148;DHT22;12309;51.450;-2.624;2023-08-07T06:03:34;13.00;99.90
24148;DHT22;12309;51.450;-2.624;2023-08-07T06:06:00;13.20;99.90
24148;DHT22;12309;51.450;-2.624;2023-08-07T06:10:52;13.30;99.90
24148;DHT22;12309;51.450;-2.624;2023-08-07T06:13:17;13.20;99.90
24148;DHT22;12309;51.450;-2.624;2023-08-07T06:15:43;13.30;99.90
24148;DHT22;12309;51.450;-2.624;2023-08-07T06:18:08;13.10;99.90
24148;DHT22;12309;51.450;-2.624;2023-08-07T06:20:34;13.40;99.90
24148;DHT22;12309;51.450;-2.624;2023-08-07T06:23:00;13.40;99.90
24148;DHT22;12309;51.450;-2.624;2023-08-07T06:25:26;13.40;99.90
24148;DHT22;12309;51.450;-2.624;2023-08-07T06:27:52;13.60;99.90
24148;DHT22;12309;51.450;-2.624;2023-08-07T06:30:18;13.70;99.90
24148;DHT22;12309;51.450;-2.624;2023-08-07T06:32:44;13.70;99.90
24148;DHT22;12309;51.450;-2.624;2023-08-07T06:35:09;13.70;99.90
24148;DHT22;12309;51.450;-2.624;2023-08-07T06:37:35;13.90;99.90
24148;DHT22;12309;51.450;-2.624;2023-08-07T06:40:00;14.00;99.90
24148;DHT22;12309;51.450;-2.624;2023-08-07T06:42:27;13.80;99.90
24148;DHT22;12309;51.450;-2.624;2023-08-07T06:44:52;14.10;99.90
24148;DHT22;12309;51.450;-2.624;2023-08-07T06:47:18;14.10;99.90
24148;DHT22;12309;51.450;-2.624;2023-08-07T06:52:09;14.40;99.90
24148;DHT22;12309;51.450;-2.624;2023-08-07T06:57:01;15.00;99.90
24148;DHT22;12309;51.450;-2.624;2023-08-07T06:59:26;15.90;99.90
24148;DHT22;12309;51.450;-2.624;2023-08-07T07:01:52;15.00;99.90
24148;DHT22;12309;51.450;-2.624;2023-08-07T07:04:18;15.30;99.90
24148;DHT22;12309;51.450;-2.624;2023-08-07T07:06:43;15.60;99.90
24148;DHT22;12309;51.450;-2.624;2023-08-07T07:09:09;15.70;99.90
24148;DHT22;12309;51.450;-2.624;2023-08-07T07:11:35;15.60;99.90
24148;DHT22;12309;51.450;-2.624;2023-08-07T07:16:27;15.80;99.90
24148;DHT22;12309;51.450;-2.624;2023-08-07T07:18:54;16.00;99.90
24148;DHT22;12309;51.450;-2.624;2023-08-07T07:21:21;16.50;99.90
24148;DHT22;12309;51.450;-2.624;2023-08-07T07:28:39;16.40;99.90
24148;DHT22;12309;51.450;-2.624;2023-08-07T07:31:04;16.50;99.90
24148;DHT22;12309;51.450;-2.624;2023-08-07T07:33:30;16.40;99.90
24148;DHT22;12309;51.450;-2.624;2023-08-07T07:35:56;16.50;99.90
24148;DHT22;12309;51.450;-2.624;2023-08-07T07:38:22;17.40;99.90
24148;DHT22;12309;51.450;-2.624;2023-08-07T07:40:47;16.60;99.90
24148;DHT22;12309;51.450;-2.624;2023-08-07T07:43:13;16.40;99.90
24148;DHT22;12309;51.450;-2.624;2023-08-07T07:45:38;16.50;99.90
24148;DHT22;12309;51.450;-2.624;2023-08-07T07:48:04;16.40;99.90
24148;DHT22;12309;51.450;-2.624;2023-08-07T07:50:31;16.60;99.90
24148;DHT22;12309;51.450;-2.624;2023-08-07T07:52:57;16.70;99.90
24148;DHT22;12309;51.450;-2.624;2023-08-07T07:55:24;16.50;99.90
24148;DHT22;12309;51.450;-2.624;2023-08-07T07:57:49;16.50;99.90
24148;DHT22;12309;51.450;-2.624;2023-08-07T08:00:16;16.80;99.90
24148;DHT22;12309;51.450;-2.624;2023-08-07T08:02:41;17.00;99.90
24148;DHT22;12309;51.450;-2.624;2023-08-07T08:05:08;17.00;99.90
24148;DHT22;12309;51.450;-2.624;2023-08-07T08:07:36;17.20;99.90
24148;DHT22;12309;51.450;-2.624;2023-08-07T08:10:02;17.20;99.90
24148;DHT22;12309;51.450;-2.624;2023-08-07T08:12:30;17.20;99.90
24148;DHT22;12309;51.450;-2.624;2023-08-07T08:14:56;17.20;99.90
24148;DHT22;12309;51.450;-2.624;2023-08-07T08:17:23;17.20;99.90
24148;DHT22;12309;51.450;-2.624;2023-08-07T08:19:49;17.40;99.90
24148;DHT22;12309;51.450;-2.624;2023-08-07T08:22:15;17.60;99.90
24148;DHT22;12309;51.450;-2.624;2023-08-07T08:24:41;17.80;99.90
24148;DHT22;12309;51.450;-2.624;2023-08-07T08:31:58;18.40;99.90
24148;DHT22;12309;51.450;-2.624;2023-08-07T08:34:26;18.70;99.90
24148;DHT22;12309;51.450;-2.624;2023-08-07T08:39:18;20.30;99.90
24148;DHT22;12309;51.450;-2.624;2023-08-07T08:41:46;20.00;99.90
24148;DHT22;12309;51.450;-2.624;2023-08-07T08:44:14;21.30;99.90
24148;DHT22;12309;51.450;-2.624;2023-08-07T08:46:41;22.00;99.90
24148;DHT22;12309;51.450;-2.624;2023-08-07T08:49:08;21.60;99.90
24148;DHT22;12309;51.450;-2.624;2023-08-07T08:51:36;22.50;99.90
24148;DHT22;12309;51.450;-2.624;2023-08-07T08:54:03;22.30;99.90
24148;DHT22;12309;51.450;-2.624;2023-08-07T08:56:29;22.80;99.90
24148;DHT22;12309;51.450;-2.624;2023-08-07T08:58:56;22.80;99.90
24148;DHT22;12309;51.450;-2.624;2023-08-07T09:01:21;23.00;99.90
24148;DHT22;12309;51.450;-2.624;2023-08-07T09:03:48;23.40;99.90
24148;DHT22;12309;51.450;-2.624;2023-08-07T09:06:14;23.50;99.90
24148;DHT22;12309;51.450;-2.624;2023-08-07T09:08:43;23.10;99.90
24148;DHT22;12309;51.450;-2.624;2023-08-07T09:11:10;23.00;99.90
24148;DHT22;12309;51.450;-2.624;2023-08-07T09:13:37;23.20;99.90
24148;DHT22;12309;51.450;-2.624;2023-08-07T09:16:04;22.60;99.90
24148;DHT22;12309;51.450;-2.624;2023-08-07T09:18:33;22.50;99.90
24148;DHT22;12309;51.450;-2.624;2023-08-07T09:20:59;22.00;99.90
24148;DHT22;12309;51.450;-2.624;2023-08-07T09:26:02;21.40;99.90
24148;DHT22;12309;51.450;-2.624;2023-08-07T09:28:28;21.20;99.90
24148;DHT22;12309;51.450;-2.624;2023-08-07T09:30:55;21.50;99.90
24148;DHT22;12309;51.450;-2.624;2023-08-07T09:33:28;21.60;99.90
24148;DHT22;12309;51.450;-2.624;2023-08-07T09:36:01;21.10;99.90
24148;DHT22;12309;51.450;-2.624;2023-08-07T09:38:31;21.40;99.90
24148;DHT22;12309;51.450;-2.624;2023-08-07T09:41:00;21.10;99.90
24148;DHT22;12309;51.450;-2.624;2023-08-07T09:43:28;22.00;99.90
24148;DHT22;12309;51.450;-2.624;2023-08-07T09:46:10;22.10;99.90
24148;DHT22;12309;51.450;-2.624;2023-08-07T09:48:40;22.00;99.90
24148;DHT22;12309;51.450;-2.624;2023-08-07T09:51:07;21.50;99.90
24148;DHT22;12309;51.450;-2.624;2023-08-07T09:53:33;21.60;99.90
24148;DHT22;12309;51.450;-2.624;2023-08-07T09:55:59;21.40;99.90
24148;DHT22;12309;51.450;-2.624;2023-08-07T09:58:25;21.50;99.90
24148;DHT22;12309;51.450;-2.624;2023-08-07T10:00:51;21.90;99.90
24148;DHT22;12309;51.450;-2.624;2023-08-07T10:03:19;22.00;99.90
24148;DHT22;12309;51.450;-2.624;2023-08-07T10:05:45;22.10;99.90
24148;DHT22;12309;51.450;-2.624;2023-08-07T10:08:12;21.70;99.90
24148;DHT22;12309;51.450;-2.624;2023-08-07T10:10:38;22.30;99.90
24148;DHT22;12309;51.450;-2.624;2023-08-07T10:13:05;23.10;99.90
24148;DHT22;12309;51.450;-2.624;2023-08-07T10:15:31;23.00;99.90
24148;DHT22;12309;51.450;-2.624;2023-08-07T10:17:58;22.90;99.90
24148;DHT22;12309;51.450;-2.624;2023-08-07T10:20:27;22.80;99.90
24148;DHT22;12309;51.450;-2.624;2023-08-07T10:23:00;22.80;99.90
24148;DHT22;12309;51.450;-2.624;2023-08-07T10:25:27;22.60;99.90
24148;DHT22;12309;51.450;-2.624;2023-08-07T10:27:55;22.30;99.90
24148;DHT22;12309;51.450;-2.624;2023-08-07T10:30:23;22.20;99.90
24148;DHT22;12309;51.450;-2.624;2023-08-07T10:32:50;21.80;99.90
24148;DHT22;12309;51.450;-2.624;2023-08-07T10:35:30;21.40;99.90
24148;DHT22;12309;51.450;-2.624;2023-08-07T10:38:08;21.60;99.90
24148;DHT22;12309;51.450;-2.624;2023-08-07T10:40:34;23.10;99.90
24148;DHT22;12309;51.450;-2.624;2023-08-07T10:43:19;23.20;99.90
24148;DHT22;12309;51.450;-2.624;2023-08-07T10:45:45;23.90;99.90
24148;DHT22;12309;51.450;-2.624;2023-08-07T10:48:12;23.50;99.90
24148;DHT22;12309;51.450;-2.624;2023-08-07T10:50:55;23.70;99.90
24148;DHT22;12309;51.450;-2.624;2023-08-07T10:53:30;23.80;99.90
24148;DHT22;12309;51.450;-2.624;2023-08-07T10:55:56;23.60;99.90
24148;DHT22;12309;51.450;-2.624;2023-08-07T10:58:29;23.50;99.90
24148;DHT22;12309;51.450;-2.624;2023-08-07T11:01:21;23.90;99.90
24148;DHT22;12309;51.450;-2.624;2023-08-07T11:06:23;23.50;99.90
24148;DHT22;12309;51.450;-2.624;2023-08-07T11:08:50;23.50;99.90
24148;DHT22;12309;51.450;-2.624;2023-08-07T11:11:15;22.60;99.90
24148;DHT22;12309;51.450;-2.624;2023-08-07T11:13:41;22.50;99.90
24148;DHT22;12309;51.450;-2.624;2023-08-07T11:16:07;21.80;99.90
24148;DHT22;12309;51.450;-2.624;2023-08-07T11:18:33;21.20;99.90
24148;DHT22;12309;51.450;-2.624;2023-08-07T11:21:01;21.20;99.90
24148;DHT22;12309;51.450;-2.624;2023-08-07T11:23:30;22.30;99.90
24148;DHT22;12309;51.450;-2.624;2023-08-07T11:25:56;22.30;99.90
24148;DHT22;12309;51.450;-2.624;2023-08-07T11:28:22;23.00;99.90
24148;DHT22;12309;51.450;-2.624;2023-08-07T11:30:51;23.80;99.90
24148;DHT22;12309;51.450;-2.624;2023-08-07T11:33:20;23.80;99.90
24148;DHT22;12309;51.450;-2.624;2023-08-07T11:35:49;24.10;99.90
24148;DHT22;12309;51.450;-2.624;2023-08-07T11:40:57;24.80;99.90
24148;DHT22;12309;51.450;-2.624;2023-08-07T11:43:23;25.20;99.90
24148;DHT22;12309;51.450;-2.624;2023-08-07T11:45:49;25.10;99.90
24148;DHT22;12309;51.450;-2.624;2023-08-07T11:48:15;25.00;99.90
24148;DHT22;12309;51.450;-2.624;2023-08-07T11:50:41;24.00;40.50
24148;DHT22;12309;51.450;-2.624;2023-08-07T11:53:08;23.60;99.90
24148;DHT22;12309;51.450;-2.624;2023-08-07T11:55:34;23.20;92.50
24148;DHT22;12309;51.450;-2.624;2023-08-07T11:58:03;24.50;99.90
24148;DHT22;12309;51.450;-2.624;2023-08-07T12:00:29;24.10;82.30
24148;DHT22;12309;51.450;-2.624;2023-08-07T12:02:54;23.70;99.90
24148;DHT22;12309;51.450;-2.624;2023-08-07T12:05:20;23.90;99.90
24148;DHT22;12309;51.450;-2.624;2023-08-07T12:07:47;23.70;99.90
24148;DHT22;12309;51.450;-2.624;2023-08-07T12:10:13;22.90;99.90
24148;DHT22;12309;51.450;-2.624;2023-08-07T12:12:38;23.70;99.90
24148;DHT22;12309;51.450;-2.624;2023-08-07T12:15:08;23.70;99.90
24148;DHT22;12309;51.450;-2.624;2023-08-07T12:17:38;24.20;81.60
24148;DHT22;12309;51.450;-2.624;2023-08-07T12:20:05;24.50;53.80
24148;DHT22;12309;51.450;-2.624;2023-08-07T12:22:37;24.20;5.40
24148;DHT22;12309;51.450;-2.624;2023-08-07T12:25:03;23.80;1.00
24148;DHT22;12309;51.450;-2.624;2023-08-07T12:27:28;23.50;45.50
24148;DHT22;12309;51.450;-2.624;2023-08-07T12:29:54;23.80;53.30
24148;DHT22;12309;51.450;-2.624;2023-08-07T12:32:19;23.90;22.30
24148;DHT22;12309;51.450;-2.624;2023-08-07T12:34:45;23.80;8.90
24148;DHT22;12309;51.450;-2.624;2023-08-07T12:37:11;23.70;1.00
24148;DHT22;12309;51.450;-2.624;2023-08-07T12:39:36;22.70;30.30
24148;DHT22;12309;51.450;-2.624;2023-08-07T12:42:02;22.70;55.90
24148;DHT22;12309;51.450;-2.624;2023-08-07T12:44:30;22.30;95.20
24148;DHT22;12309;51.450;-2.624;2023-08-07T12:46:56;23.30;99.90
24148;DHT22;12309;51.450;-2.624;2023-08-07T12:49:21;22.60;99.90
24148;DHT22;12309;51.450;-2.624;2023-08-07T12:51:48;21.20;99.90
24148;DHT22;12309;51.450;-2.624;2023-08-07T12:54:14;21.10;99.90
24148;DHT22;12309;51.450;-2.624;2023-08-07T12:56:40;21.30;99.90
24148;DHT22;12309;51.450;-2.624;2023-08-07T12:59:06;21.40;99.90
24148;DHT22;12309;51.450;-2.624;2023-08-07T13:01:32;21.40;99.90
24148;DHT22;12309;51.450;-2.624;2023-08-07T13:06:24;21.20;99.90
24148;DHT22;12309;51.450;-2.624;2023-08-07T13:08:49;21.30;99.90
24148;DHT22;12309;51.450;-2.624;2023-08-07T13:11:15;21.50;99.90
24148;DHT22;12309;51.450;-2.624;2023-08-07T13:13:40;21.50;99.90
24148;DHT22;12309;51.450;-2.624;2023-08-07T13:16:06;21.70;99.90
24148;DHT22;12309;51.450;-2.624;2023-08-07T13:18:32;21.70;99.90
24148;DHT22;12309;51.450;-2.624;2023-08-07T13:20:58;21.00;99.90
24148;DHT22;12309;51.450;-2.624;2023-08-07T13:23:24;21.40;99.90
24148;DHT22;12309;51.450;-2.624;2023-08-07T13:25:49;21.40;99.90
24148;DHT22;12309;51.450;-2.624;2023-08-07T13:28:15;21.40;99.90
24148;DHT22;12309;51.450;-2.624;2023-08-07T13:30:42;21.20;99.90
24148;DHT22;12309;51.450;-2.624;2023-08-07T13:33:07;21.40;99.90
24148;DHT22;12309;51.450;-2.624;2023-08-07T13:35:33;21.60;99.90
24148;DHT22;12309;51.450;-2.624;2023-08-07T13:37:58;21.50;99.90
24148;DHT22;12309;51.450;-2.624;2023-08-07T13:40:24;21.40;99.90
24148;DHT22;12309;51.450;-2.624;2023-08-07T13:42:50;21.80;99.90
24148;DHT22;12309;51.450;-2.624;2023-08-07T13:45:15;21.80;99.90
24148;DHT22;12309;51.450;-2.624;2023-08-07T13:47:41;22.00;99.90
24148;DHT22;12309;51.450;-2.624;2023-08-07T13:50:07;22.40;65.90
24148;DHT22;12309;51.450;-2.624;2023-08-07T13:52:35;22.30;54.40
24148;DHT22;12309;51.450;-2.624;2023-08-07T13:55:00;22.50;45.10
24148;DHT22;12309;51.450;-2.624;2023-08-07T13:57:26;22.20;31.40
24148;DHT22;12309;51.450;-2.624;2023-08-07T13:59:52;22.20;25.40
24148;DHT22;12309;51.450;-2.624;2023-08-07T14:02:19;21.90;12.00
24148;DHT22;12309;51.450;-2.624;2023-08-07T14:04:45;22.00;28.80
24148;DHT22;12309;51.450;-2.624;2023-08-07T14:07:11;22.10;33.50
24148;DHT22;12309;51.450;-2.624;2023-08-07T14:09:37;21.80;61.20
24148;DHT22;12309;51.450;-2.624;2023-08-07T14:12:03;21.80;71.30
24148;DHT22;12309;51.450;-2.624;2023-08-07T14:14:29;21.40;83.90
24148;DHT22;12309;51.450;-2.624;2023-08-07T14:19:23;22.00;60.20
24148;DHT22;12309;51.450;-2.624;2023-08-07T14:21:50;22.80;37.50
24148;DHT22;12309;51.450;-2.624;2023-08-07T14:24:16;23.20;1.00
24148;DHT22;12309;51.450;-2.624;2023-08-07T14:26:44;23.10;1.00
24148;DHT22;12309;51.450;-2.624;2023-08-07T14:29:10;23.00;1.00
24148;DHT22;12309;51.450;-2.624;2023-08-07T14:31:36;22.40;1.00
24148;DHT22;12309;51.450;-2.624;2023-08-07T14:34:01;21.60;1.00
24148;DHT22;12309;51.450;-2.624;2023-08-07T14:36:27;21.70;1.00
24148;DHT22;12309;51.450;-2.624;2023-08-07T14:38:52;21.80;1.00
24148;DHT22;12309;51.450;-2.624;2023-08-07T14:41:18;23.10;1.00
24148;DHT22;12309;51.450;-2.624;2023-08-07T14:43:44;23.10;1.00
24148;DHT22;12309;51.450;-2.624;2023-08-07T14:46:11;24.20;1.00
24148;DHT22;12309;51.450;-2.624;2023-08-07T14:48:36;25.10;1.00
24148;DHT22;12309;51.450;-2.624;2023-08-07T14:51:02;25.60;1.00
24148;DHT22;12309;51.450;-2.624;2023-08-07T14:53:28;25.90;1.00
24148;DHT22;12309;51.450;-2.624;2023-08-07T14:55:54;25.40;1.00
24148;DHT22;12309;51.450;-2.624;2023-08-07T14:58:19;25.60;1.00
24148;DHT22;12309;51.450;-2.624;2023-08-07T15:00:45;25.60;1.00
24148;DHT22;12309;51.450;-2.624;2023-08-07T15:03:11;23.90;1.00
24148;DHT22;12309;51.450;-2.624;2023-08-07T15:08:03;22.10;90.10
24148;DHT22;12309;51.450;-2.624;2023-08-07T15:12:55;21.90;98.70
24148;DHT22;12309;51.450;-2.624;2023-08-07T15:15:24;22.00;95.50
24148;DHT22;12309;51.450;-2.624;2023-08-07T15:17:49;21.80;99.90
24148;DHT22;12309;51.450;-2.624;2023-08-07T15:20:15;22.10;99.90
24148;DHT22;12309;51.450;-2.624;2023-08-07T15:22:41;22.10;99.90
24148;DHT22;12309;51.450;-2.624;2023-08-07T15:25:07;22.10;99.90
24148;DHT22;12309;51.450;-2.624;2023-08-07T15:27:33;22.90;54.50
24148;DHT22;12309;51.450;-2.624;2023-08-07T15:29:58;21.00;37.30
24148;DHT22;12309;51.450;-2.624;2023-08-07T15:32:24;22.70;28.90
24148;DHT22;12309;51.450;-2.624;2023-08-07T15:34:50;22.70;23.00
24148;DHT22;12309;51.450;-2.624;2023-08-07T15:37:15;22.70;19.00
24148;DHT22;12309;51.450;-2.624;2023-08-07T15:39:41;22.50;49.60
24148;DHT22;12309;51.450;-2.624;2023-08-07T15:42:07;21.80;83.40
24148;DHT22;12309;51.450;-2.624;2023-08-07T15:44:32;21.10;99.90
24148;DHT22;12309;51.450;-2.624;2023-08-07T15:46:58;21.00;99.90
24148;DHT22;12309;51.450;-2.624;2023-08-07T15:49:24;21.00;99.90
24148;DHT22;12309;51.450;-2.624;2023-08-07T15:51:51;21.30;99.90
24148;DHT22;12309;51.450;-2.624;2023-08-07T15:54:17;21.30;99.90
24148;DHT22;12309;51.450;-2.624;2023-08-07T15:59:08;22.40;93.30
24148;DHT22;12309;51.450;-2.624;2023-08-07T16:01:34;22.70;50.20
24148;DHT22;12309;51.450;-2.624;2023-08-07T16:06:26;23.10;5.60
24148;DHT22;12309;51.450;-2.624;2023-08-07T16:08:52;23.30;30.00
24148;DHT22;12309;51.450;-2.624;2023-08-07T16:11:20;22.90;37.10
24148;DHT22;12309;51.450;-2.624;2023-08-07T16:13:45;22.20;62.20